LIMC/MXP METAR and TAF weather

Enter ICAO airport designator
Station Type Date Time Source
LIMC METAR 2020/01/24 09:20 UTC NOAA

LIMC 240920Z 22003KT 140V270 8000 NSC 04/01 Q1027 NOSIG


Station Type Date Time Source
LIMC Decoded METAR 2020/01/24 09:20 UTC NOAA

Milano / Malpensa, Italy (LIMC) 45-37N 008-44E 211M
Jan 24, 2020 - 04:20 AM EST / 2020.01.24 0920 UTC
Wind: from the SW (220 degrees) at 3 MPH (3 KT) (direction variable):0
Visibility: 4 mile(s):0
Temperature: 39 F (4 C)
Dew Point: 33 F (1 C)
Relative Humidity: 80%
Pressure (altimeter): 30.33 in. Hg (1027 hPa)
ob: LIMC 240920Z 22003KT 140V270 8000 NSC 04/01 Q1027 NOSIG
cycle: 9

Station Type Date Time Source
LIMC TAF 2020/01/24 06:21 UTC NOAA

TAF LIMC 240500Z 2406/2512 VRB05KT 9999 SCT030 SCT060
TEMPO 2406/2408 4000 BCFG

Example: see airport list